Adams, Illinois
Current Conditions -  °F | °C
As of 2:54 AM on Friday 24 Oct 2014 (Local Time) from KUIN Reporting Station
Overcast Overcast  
Wind Chill: 12°   Ceiling: 600
Heat Index: 12°   Visibility: 10mi
Dew Point: 11°   Wind: 3mph
Humidity: 93%   Direction: 240°WSW
Pressure: 30.07"   Gusts: NA
Location:  39.8875°N, 91.0352°W
Report Text: KUIN 240754Z AUTO 24003KT 10SM OVC006 12/11 A3007 RMK AO2 SLP181 T01220111
Loading
Personal Weather Stations






























Interactive Weather Map
Tropical Storm Tracking
New forecast layout! Learn more

10-Day Weather Forecast

Advertisements
Track Severe Weather on mobile